Cabernet Sky — WDH7244 — position and weather

sailwx.info

Track history (hours):
 
Tides and Currents Weather Stations Pressure Air Temp Water Temp Dewpoint Dewpoint Depression Visibility Wind Speed Wind Dir Waves Ship Positions

Cabernet Sky

Owner: Buckner, Charles A, Dana Point, CA. More information available from US FCC via Universal Licensing System and Coast Guard Vessel Documentation Center.

Last reported at 2018-Feb-17 22:10 UTC. Time now 2018-Feb-22 18:16 UTC.
Position N 32°37' W 117°28'.

Length 16 m.

Type: Sailing vessel. MMSI: 367646260.

Date/timePositionNaut miles runAvg speedWind from/ knotsBaromVisibWave heightAir tempDewpointWater temp
2018-Feb-17 22:10N 32°37' W 117°28'1 5.2
2018-Feb-17 21:59N 32°37' W 117°29'3 5.7
2018-Feb-17 21:30N 32°37' W 117°32'4 6.6
2018-Feb-17 20:53N 32°38' W 117°37'3 6.9
2018-Feb-17 20:27N 32°38' W 117°41'3 6.9
2018-Feb-17 20:00N 32°39' W 117°44'3 6.9
2018-Feb-17 19:30N 32°39' W 117°48'32 6.5
2018-Feb-17 14:32N 32°43' W 118°26'0 1.0
2018-Feb-17 14:29N 32°43' W 118°26'1 1.9
2018-Feb-17 13:46N 32°43' W 118°28'1 2.5
2018-Feb-17 13:30N 32°44' W 118°29'1 2.6
2018-Feb-17 13:00N 32°44' W 118°30'6 2.9
2018-Feb-17 11:06N 32°47' W 118°35'1 6.0
2018-Feb-17 11:00N 32°48' W 118°35'3 5.9
2018-Feb-17 10:30N 32°51' W 118°36'3 5.7
2018-Feb-17 09:57N 32°54' W 118°37'23 5.1
2018-Feb-17 05:31N 33°17' W 118°38'0 4.6
2018-Feb-17 05:29N 33°17' W 118°38'3 4.7
2018-Feb-17 04:55N 33°19' W 118°37'3 5.8
2018-Feb-17 04:29N 33°22' W 118°37'5 5.3
2018-Feb-17 03:35N 33°27' W 118°37'1 5.1
2018-Feb-17 03:28N 33°27' W 118°37'2 3.1
2018-Feb-17 02:54N 33°29' W 118°37'2 3.7
2018-Feb-17 02:29N 33°30' W 118°36'2 4.8
2018-Feb-17 01:58N 33°33' W 118°35'16 3.1
2018-Feb-16 20:46N 33°41' W 118°18'0 1.4
2018-Feb-16 20:29N 33°41' W 118°17'0 0.7
2018-Feb-16 19:59N 33°42' W 118°17'3 5.9
2018-Feb-16 19:30N 33°43' W 118°14'3 6.7
2018-Feb-16 19:00N 33°44' W 118°10'3 5.5
2018-Feb-16 18:25N 33°45' W 118°07'0 0.1
2018-Feb-16 17:12N 33°45' W 118°07'0 0.0
2018-Feb-15 18:30N 33°45' W 118°07'0 0.0
2018-Feb-15 14:57N 33°45' W 118°07'0 0.0
2018-Feb-14 01:36N 33°45' W 118°07'0 0.0
2018-Feb-14 01:15N 33°45' W 118°07'0 0.0
2018-Feb-14 00:48N 33°45' W 118°07'0 0.0
2018-Feb-14 00:24N 33°45' W 118°07'0 0.0
2018-Feb-13 23:06N 33°45' W 118°07'0 0.0
2018-Feb-13 22:48N 33°45' W 118°07'0 0.0
2018-Feb-13 22:28N 33°45' W 118°07'0 0.0
2018-Feb-13 22:00N 33°45' W 118°07'0 0.0
2018-Feb-13 21:22N 33°45' W 118°07'0 0.0
2018-Feb-13 21:00N 33°45' W 118°07'0 0.0
2018-Feb-13 20:30N 33°45' W 118°07'0 0.0
2018-Feb-13 19:54N 33°45' W 118°07'0 0.0
2018-Feb-13 19:30N 33°45' W 118°07'0 0.0
2018-Feb-13 19:01N 33°45' W 118°07'0 0.0
2018-Feb-13 18:30N 33°45' W 118°07'0 0.0
2018-Feb-13 17:57N 33°45' W 118°07'0 0.0
2018-Feb-13 17:21N 33°45' W 118°07'0 0.0
2018-Feb-13 16:57N 33°45' W 118°07'0 0.0
2018-Feb-13 16:31N 33°45' W 118°07'0 0.0
2018-Feb-13 15:57N 33°45' W 118°07'0 0.0
2018-Feb-13 15:21N 33°45' W 118°07'0 0.0
2018-Feb-13 14:57N 33°45' W 118°07'0 0.0
2018-Feb-13 01:41N 33°45' W 118°07'1 3.8
2018-Feb-13 01:30N 33°44' W 118°07'3 5.7
2018-Feb-13 00:58N 33°42' W 118°05'27 1.0
2018-Feb-11 21:34N 33°25' W 117°39'0 2.3
2018-Feb-11 21:28N 33°25' W 117°39'1 2.0
2018-Feb-11 21:00N 33°24' W 117°39'4 0.2
2018-Feb-10 23:33N 33°28' W 117°42'0 2.6
2018-Feb-10 23:22N 33°27' W 117°42'0 0.0
2018-Feb-10 03:53N 33°28' W 117°42'0 0.0
2018-Feb-10 02:41N 33°28' W 117°42'0 0.0
2018-Feb-10 02:29N 33°28' W 117°42'0 0.0
2018-Feb-10 01:59N 33°28' W 117°42'1 1.5
2018-Feb-10 01:30N 33°27' W 117°42'3 6.1
2018-Feb-10 00:59N 33°28' W 117°45'3 6.7
2018-Feb-10 00:30N 33°30' W 117°48'3 6.2
2018-Feb-09 23:59N 33°32' W 117°51'17 5.0
2018-Feb-09 20:31N 33°42' W 118°08'3 5.1
2018-Feb-09 20:01N 33°45' W 118°07'  
Track history (hours):
 
Tides and Currents Weather Stations Pressure Air Temp Water Temp Dewpoint Dewpoint Depression Visibility Wind Speed Wind Dir Waves Ship Positions

Cabernet Sky

Owner: Buckner, Charles A, Dana Point, CA. More information available from US FCC via Universal Licensing System and Coast Guard Vessel Documentation Center.

Last reported at 2018-Feb-17 22:10 UTC. Time now 2018-Feb-22 18:16 UTC.
Position N 32°37' W 117°28'.

Length 16 m.

Type: Sailing vessel. MMSI: 367646260.

Date/timePositionNaut miles runAvg speedWind from/ knotsBaromVisibWave heightAir tempDewpointWater temp
2018-Feb-17 22:10N 32°37' W 117°28'1 5.2
2018-Feb-17 21:59N 32°37' W 117°29'3 5.7
2018-Feb-17 21:30N 32°37' W 117°32'4 6.6
2018-Feb-17 20:53N 32°38' W 117°37'3 6.9
2018-Feb-17 20:27N 32°38' W 117°41'3 6.9
2018-Feb-17 20:00N 32°39' W 117°44'3 6.9
2018-Feb-17 19:30N 32°39' W 117°48'32 6.5
2018-Feb-17 14:32N 32°43' W 118°26'0 1.0
2018-Feb-17 14:29N 32°43' W 118°26'1 1.9
2018-Feb-17 13:46N 32°43' W 118°28'1 2.5
2018-Feb-17 13:30N 32°44' W 118°29'1 2.6
2018-Feb-17 13:00N 32°44' W 118°30'6 2.9
2018-Feb-17 11:06N 32°47' W 118°35'1 6.0
2018-Feb-17 11:00N 32°48' W 118°35'3 5.9
2018-Feb-17 10:30N 32°51' W 118°36'3 5.7
2018-Feb-17 09:57N 32°54' W 118°37'23 5.1
2018-Feb-17 05:31N 33°17' W 118°38'0 4.6
2018-Feb-17 05:29N 33°17' W 118°38'3 4.7
2018-Feb-17 04:55N 33°19' W 118°37'3 5.8
2018-Feb-17 04:29N 33°22' W 118°37'5 5.3
2018-Feb-17 03:35N 33°27' W 118°37'1 5.1
2018-Feb-17 03:28N 33°27' W 118°37'2 3.1
2018-Feb-17 02:54N 33°29' W 118°37'2 3.7
2018-Feb-17 02:29N 33°30' W 118°36'2 4.8
2018-Feb-17 01:58N 33°33' W 118°35'16 3.1
2018-Feb-16 20:46N 33°41' W 118°18'0 1.4
2018-Feb-16 20:29N 33°41' W 118°17'0 0.7
2018-Feb-16 19:59N 33°42' W 118°17'3 5.9
2018-Feb-16 19:30N 33°43' W 118°14'3 6.7
2018-Feb-16 19:00N 33°44' W 118°10'3 5.5
2018-Feb-16 18:25N 33°45' W 118°07'0 0.1
2018-Feb-16 17:12N 33°45' W 118°07'0 0.0
2018-Feb-15 18:30N 33°45' W 118°07'0 0.0
2018-Feb-15 14:57N 33°45' W 118°07'0 0.0
2018-Feb-14 01:36N 33°45' W 118°07'0 0.0
2018-Feb-14 01:15N 33°45' W 118°07'0 0.0
2018-Feb-14 00:48N 33°45' W 118°07'0 0.0
2018-Feb-14 00:24N 33°45' W 118°07'0 0.0
2018-Feb-13 23:06N 33°45' W 118°07'0 0.0
2018-Feb-13 22:48N 33°45' W 118°07'0 0.0
2018-Feb-13 22:28N 33°45' W 118°07'0 0.0
2018-Feb-13 22:00N 33°45' W 118°07'0 0.0
2018-Feb-13 21:22N 33°45' W 118°07'0 0.0
2018-Feb-13 21:00N 33°45' W 118°07'0 0.0
2018-Feb-13 20:30N 33°45' W 118°07'0 0.0
2018-Feb-13 19:54N 33°45' W 118°07'0 0.0
2018-Feb-13 19:30N 33°45' W 118°07'0 0.0
2018-Feb-13 19:01N 33°45' W 118°07'0 0.0
2018-Feb-13 18:30N 33°45' W 118°07'0 0.0
2018-Feb-13 17:57N 33°45' W 118°07'0 0.0
2018-Feb-13 17:21N 33°45' W 118°07'0 0.0
2018-Feb-13 16:57N 33°45' W 118°07'0 0.0
2018-Feb-13 16:31N 33°45' W 118°07'0 0.0
2018-Feb-13 15:57N 33°45' W 118°07'0 0.0
2018-Feb-13 15:21N 33°45' W 118°07'0 0.0
2018-Feb-13 14:57N 33°45' W 118°07'0 0.0
2018-Feb-13 01:41N 33°45' W 118°07'1 3.8
2018-Feb-13 01:30N 33°44' W 118°07'3 5.7
2018-Feb-13 00:58N 33°42' W 118°05'27 1.0
2018-Feb-11 21:34N 33°25' W 117°39'0 2.3
2018-Feb-11 21:28N 33°25' W 117°39'1 2.0
2018-Feb-11 21:00N 33°24' W 117°39'4 0.2
2018-Feb-10 23:33N 33°28' W 117°42'0 2.6
2018-Feb-10 23:22N 33°27' W 117°42'0 0.0
2018-Feb-10 03:53N 33°28' W 117°42'0 0.0
2018-Feb-10 02:41N 33°28' W 117°42'0 0.0
2018-Feb-10 02:29N 33°28' W 117°42'0 0.0
2018-Feb-10 01:59N 33°28' W 117°42'1 1.5
2018-Feb-10 01:30N 33°27' W 117°42'3 6.1
2018-Feb-10 00:59N 33°28' W 117°45'3 6.7
2018-Feb-10 00:30N 33°30' W 117°48'3 6.2
2018-Feb-09 23:59N 33°32' W 117°51'17 5.0
2018-Feb-09 20:31N 33°42' W 118°08'3 5.1
2018-Feb-09 20:01N 33°45' W 118°07'  

Dump ship's entire track history